Terminal Aerodrome Forecast
Issued by NWS Mt. Holly, NJ

Home | Current Version | Previous Version | Text Only | Print | Product List | Glossary On
Versions: 1 2 3 4 5 6 7 8 9 10 11 12 13 14 15 16 17 18
000
FTUS41 KPHI 210900 CCA
TAFTTN
TAF COR
KTTN 210947Z 2109/2206 VRB03KT P6SM SCT035 OVC110
     FM211500 36005KT P6SM BKN035 OVC120
     FM220000 VRB02KT P6SM SCT035 BKN250=

USA.gov is the U.S. government's official web portal to all federal, state and local government web resources and services.